createdAt,value
2018-02-08T00:01:24.411Z,12.60
2018-02-08T00:03:54.450Z,15.02
2018-02-08T00:06:24.159Z,12.93
2018-02-08T00:08:53.932Z,13.70
2018-02-08T00:11:23.617Z,13.93
2018-02-08T00:13:53.361Z,11.40
2018-02-08T00:16:23.837Z,10.55
2018-02-08T00:18:53.645Z,13.68
2018-02-08T00:21:23.351Z,16.05
2018-02-08T00:23:53.089Z,13.45
2018-02-08T00:26:22.799Z,11.75
2018-02-08T00:28:52.776Z,11.50
2018-02-08T00:31:22.659Z,12.37
2018-02-08T00:33:53.224Z,12.68
2018-02-08T00:36:23.149Z,11.18
2018-02-08T00:38:52.967Z,12.48
2018-02-08T00:41:22.809Z,14.20
2018-02-08T00:43:52.588Z,13.95
2018-02-08T00:46:22.342Z,10.50
2018-02-08T00:48:52.059Z,12.50
2018-02-08T00:51:22.781Z,17.35
2018-02-08T00:53:52.481Z,15.80
2018-02-08T00:56:22.251Z,15.63
2018-02-08T00:58:51.973Z,14.50
2018-02-08T01:01:25.924Z,12.00
2018-02-08T01:03:55.618Z,12.15
2018-02-08T01:06:25.390Z,14.82
2018-02-08T01:08:55.275Z,14.48
2018-02-08T01:11:25.812Z,12.35
2018-02-08T01:13:55.556Z,13.60
2018-02-08T01:16:25.272Z,10.65
2018-02-08T01:18:55.315Z,12.52
2018-02-08T01:21:25.103Z,14.40
2018-02-08T01:23:55.563Z,14.65
2018-02-08T01:26:25.329Z,14.87
2018-02-08T01:28:55.138Z,12.73
2018-02-08T01:31:24.933Z,15.20
2018-02-08T01:33:54.846Z,13.48
2018-02-08T01:36:24.564Z,10.90
2018-02-08T01:38:54.231Z,11.12
2018-02-08T01:41:23.979Z,10.30
2018-02-08T01:43:53.882Z,12.30
2018-02-08T01:46:23.601Z,13.30
2018-02-08T01:48:53.263Z,11.02
2018-02-08T01:51:23.057Z,11.63
2018-02-08T01:53:52.753Z,10.68
2018-02-08T01:56:22.487Z,10.85
2018-02-08T01:58:52.260Z,10.30
2018-02-08T02:01:21.994Z,11.45
2018-02-08T02:03:51.862Z,11.18
2018-02-08T02:06:21.759Z,13.10
2018-02-08T02:08:52.276Z,10.57
2018-02-08T02:11:22.067Z,12.13
2018-02-08T02:13:52.103Z,13.30
2018-02-08T02:16:21.938Z,13.60
2018-02-08T02:18:52.491Z,11.25
2018-02-08T02:21:22.211Z,12.77
2018-02-08T02:23:52.087Z,12.93
2018-02-08T02:26:22.529Z,12.05
2018-02-08T02:28:52.295Z,10.80
2018-02-08T02:31:22.077Z,13.30
2018-02-08T02:33:51.907Z,12.18
2018-02-08T02:36:24.696Z,11.90
2018-02-08T02:38:54.541Z,11.93
2018-02-08T02:41:25.069Z,12.70
2018-02-08T02:43:54.833Z,11.93
2018-02-08T02:46:24.540Z,12.13
2018-02-08T02:48:54.366Z,11.63
2018-02-08T02:51:24.128Z,12.55
2018-02-08T02:53:53.883Z,14.25
2018-02-08T02:56:23.666Z,11.57
2018-02-08T02:58:53.444Z,14.35
2018-02-08T03:01:23.985Z,11.80
2018-02-08T03:03:54.466Z,13.68
2018-02-08T03:06:24.136Z,13.18
2018-02-08T03:08:53.914Z,15.80
2018-02-08T03:11:24.367Z,13.07
2018-02-08T03:13:54.161Z,14.10
2018-02-08T03:16:24.690Z,16.70
2018-02-08T03:18:55.248Z,13.90
2018-02-08T03:21:24.999Z,11.65
2018-02-08T03:23:55.505Z,10.57
2018-02-08T03:26:25.334Z,11.90
2018-02-08T03:28:57.810Z,12.93
2018-02-08T03:31:27.615Z,13.70
2018-02-08T03:33:57.468Z,12.23
2018-02-08T03:36:28.032Z,11.30
2018-02-08T03:38:57.803Z,12.52
2018-02-08T03:41:27.597Z,11.95
2018-02-08T03:43:57.300Z,11.98
2018-02-08T03:46:27.144Z,12.43
2018-02-08T03:48:57.657Z,12.52
2018-02-08T03:51:27.332Z,12.98
2018-02-08T03:53:57.082Z,12.02
2018-02-08T03:56:27.555Z,12.48
2018-02-08T03:58:57.360Z,11.88
2018-02-08T04:01:27.338Z,11.23
2018-02-08T04:03:57.782Z,10.07
2018-02-08T04:06:27.639Z,13.15
2018-02-08T04:08:57.345Z,13.20
2018-02-08T04:11:27.043Z,11.95
2018-02-08T04:13:57.003Z,12.80
2018-02-08T04:16:26.730Z,12.00
2018-02-08T04:18:56.487Z,13.60
2018-02-08T04:21:26.220Z,13.25
2018-02-08T04:23:55.977Z,14.20
2018-02-08T04:26:25.683Z,13.45
2018-02-08T04:28:56.146Z,12.52
2018-02-08T04:31:25.939Z,13.15
2018-02-08T04:33:55.938Z,12.95
2018-02-08T04:36:25.851Z,13.95
2018-02-08T04:41:13.421Z,12.25
2018-02-08T04:44:00.138Z,13.02
2018-02-08T04:47:09.312Z,13.07
2018-02-08T04:49:39.089Z,12.82
2018-02-08T04:52:09.662Z,13.32
2018-02-08T04:54:39.455Z,13.62
2018-02-08T04:57:09.282Z,13.80
2018-02-08T04:59:39.791Z,14.07
2018-02-08T05:02:09.671Z,11.90
2018-02-08T05:04:39.502Z,13.05
2018-02-08T05:07:09.206Z,12.27
2018-02-08T05:09:39.704Z,14.65
2018-02-08T05:12:16.107Z,14.75
2018-02-08T05:14:45.934Z,12.65
2018-02-08T05:17:15.741Z,12.73
2018-02-08T05:19:45.536Z,11.90
2018-02-08T05:22:15.359Z,12.75
2018-02-08T05:24:45.090Z,11.98
2018-02-08T05:27:15.648Z,13.05
2018-02-08T05:29:45.428Z,12.02
2018-02-08T05:32:15.186Z,12.70
2018-02-08T05:34:44.959Z,11.98
2018-02-08T05:37:15.496Z,11.48
2018-02-08T05:39:45.304Z,12.90
2018-02-08T05:42:15.838Z,13.82
2018-02-08T05:44:46.435Z,13.07
2018-02-08T05:47:16.180Z,12.02
2018-02-08T05:49:46.674Z,11.65
2018-02-08T05:52:16.787Z,12.52
2018-02-08T05:54:46.573Z,12.20
2018-02-08T05:57:16.350Z,14.40
2018-02-08T05:59:46.883Z,12.73
2018-02-08T06:02:17.542Z,12.98
2018-02-08T06:04:47.307Z,12.77
2018-02-08T06:07:17.917Z,12.40
2018-02-08T06:09:48.559Z,12.63
2018-02-08T06:12:18.276Z,14.00
2018-02-08T06:14:48.783Z,15.13
2018-02-08T06:17:18.647Z,12.25
2018-02-08T06:19:48.350Z,13.10
2018-02-08T06:22:18.091Z,13.27
2018-02-08T06:24:47.902Z,16.35
2018-02-08T06:27:17.961Z,13.77
2018-02-08T06:29:48.481Z,13.93
2018-02-08T06:32:18.237Z,14.27
2018-02-08T06:34:48.352Z,14.48
2018-02-08T06:37:18.300Z,13.50
2018-02-08T06:39:48.193Z,13.35
2018-02-08T06:42:17.884Z,13.88
2018-02-08T06:44:48.229Z,13.70
2018-02-08T06:47:19.770Z,15.80
2018-02-08T06:49:50.555Z,15.05
2018-02-08T06:52:20.422Z,11.45
2018-02-08T06:54:51.405Z,12.27
2018-02-08T06:57:21.079Z,14.10
2018-02-08T06:59:51.500Z,14.30
2018-02-08T07:02:21.260Z,11.40
2018-02-08T07:04:56.072Z,13.60
2018-02-08T07:07:26.064Z,12.70
2018-02-08T07:09:56.124Z,12.55
2018-02-08T07:12:26.119Z,11.20
2018-02-08T07:14:57.715Z,13.13
2018-02-08T07:17:27.620Z,11.98
2018-02-08T07:19:57.324Z,11.10
2018-02-08T07:22:27.399Z,13.93
2018-02-08T07:24:57.162Z,13.32
2018-02-08T07:27:28.448Z,13.50
2018-02-08T07:29:58.219Z,16.05
2018-02-08T07:32:28.898Z,14.55
2018-02-08T07:34:58.601Z,13.05
2018-02-08T07:37:28.808Z,14.52
2018-02-08T07:39:59.008Z,16.58
2018-02-08T07:42:29.202Z,12.25
2018-02-08T07:45:06.243Z,14.70
2018-02-08T07:47:35.977Z,12.90
2018-02-08T07:50:11.987Z,14.00
2018-02-08T07:52:42.774Z,14.20
2018-02-08T07:55:12.622Z,13.30
2018-02-08T07:57:43.122Z,15.18
2018-02-08T08:00:13.208Z,13.32
2018-02-08T08:02:42.938Z,16.90
2018-02-08T08:05:12.719Z,20.88
2018-02-08T08:07:42.467Z,20.60
2018-02-08T08:10:12.433Z,16.98
2018-02-08T08:12:42.242Z,14.27
2018-02-08T08:15:13.441Z,13.52
2018-02-08T08:17:43.178Z,14.45
2018-02-08T08:20:13.000Z,15.20
2018-02-08T08:22:43.564Z,16.80
2018-02-08T08:25:13.362Z,16.02
2018-02-08T08:27:43.197Z,16.05
2018-02-08T08:30:12.862Z,17.58
2018-02-08T08:32:43.447Z,16.85
2018-02-08T08:35:13.272Z,16.27
2018-02-08T08:37:43.010Z,16.25
2018-02-08T08:40:14.214Z,17.40
2018-02-08T08:42:43.924Z,18.42
2018-02-08T08:45:13.729Z,18.15
2018-02-08T08:47:43.431Z,18.42
2018-02-08T08:50:13.163Z,15.27
2018-02-08T08:52:42.872Z,14.50
2018-02-08T08:55:12.881Z,18.67
2018-02-08T08:57:42.695Z,16.65
2018-02-08T09:00:12.497Z,16.55
2018-02-08T09:02:42.341Z,16.50
2018-02-08T09:05:12.087Z,16.30
2018-02-08T09:07:42.760Z,22.92
2018-02-08T09:10:12.656Z,18.70
2018-02-08T09:12:42.436Z,17.85
2018-02-08T09:15:13.097Z,20.45
2018-02-08T09:17:42.914Z,16.00
2018-02-08T09:20:12.721Z,18.08
2018-02-08T09:22:42.525Z,15.45
2018-02-08T09:25:12.259Z,19.23
2018-02-08T09:27:42.029Z,19.37
2018-02-08T09:30:12.642Z,17.12
2018-02-08T09:32:43.235Z,19.25
2018-02-08T09:35:13.717Z,23.10
2018-02-08T09:37:44.372Z,17.10
2018-02-08T09:40:14.323Z,15.52
2018-02-08T09:42:44.362Z,20.55
2018-02-08T09:45:14.112Z,18.52
2018-02-08T09:47:43.898Z,22.37
2018-02-08T09:50:14.371Z,19.58
2018-02-08T09:52:44.103Z,22.20
2018-02-08T09:55:13.984Z,23.58
2018-02-08T09:57:43.724Z,17.15
2018-02-08T10:00:13.492Z,23.83
2018-02-08T10:02:42.392Z,19.05
2018-02-08T10:05:12.164Z,22.77
2018-02-08T10:07:42.630Z,23.10
2018-02-08T10:10:12.359Z,23.30
2018-02-08T10:12:42.102Z,19.62
2018-02-08T10:15:11.903Z,24.20
2018-02-08T10:17:41.771Z,24.73
2018-02-08T10:20:11.535Z,18.92
2018-02-08T10:22:41.237Z,25.27
2018-02-08T10:25:10.943Z,21.85
2018-02-08T10:27:40.971Z,25.92
2018-02-08T10:30:10.680Z,25.10
2018-02-08T10:32:40.397Z,23.15
2018-02-08T10:35:11.208Z,26.62
2018-02-08T10:37:41.163Z,25.33
2018-02-08T10:40:11.857Z,26.37
2018-02-08T10:42:41.574Z,86.72
2018-02-08T10:45:11.330Z,42.50
2018-02-08T10:47:41.175Z,26.37
2018-02-08T10:50:11.739Z,25.55
2018-02-08T10:52:42.365Z,26.48
2018-02-08T10:55:12.057Z,22.02
2018-02-08T10:57:41.775Z,18.12
2018-02-08T11:00:11.504Z,20.98
2018-02-08T11:02:41.434Z,22.87
2018-02-08T11:05:12.110Z,24.10
2018-02-08T11:07:41.836Z,24.33
2018-02-08T11:10:11.651Z,25.12
2018-02-08T11:12:41.680Z,20.92
2018-02-08T11:15:11.453Z,24.02
2018-02-08T11:17:41.334Z,20.73
2018-02-08T11:20:11.174Z,22.25
2018-02-08T11:22:42.181Z,22.20
2018-02-08T11:25:12.660Z,22.65
2018-02-08T11:27:42.423Z,28.08
2018-02-08T11:30:12.353Z,23.92
2018-02-08T11:32:42.107Z,24.30
2018-02-08T11:35:13.751Z,24.45
2018-02-08T11:37:43.415Z,24.80
2018-02-08T11:40:13.197Z,24.23
2018-02-08T11:42:43.347Z,21.77
2018-02-08T11:45:13.145Z,19.60
2018-02-08T11:47:44.042Z,20.17
2018-02-08T11:50:14.138Z,22.67
2018-02-08T11:52:43.918Z,22.00
2018-02-08T11:55:14.571Z,23.90
2018-02-08T11:57:45.556Z,22.98
2018-02-08T12:00:15.289Z,21.02
2018-02-08T12:02:45.903Z,21.45
2018-02-08T12:05:15.780Z,23.23
2018-02-08T12:07:45.530Z,21.15
2018-02-08T12:10:15.321Z,24.27
2018-02-08T12:12:45.261Z,22.23
2018-02-08T12:15:15.171Z,22.17
2018-02-08T12:17:44.994Z,22.10
2018-02-08T12:20:15.568Z,22.92
2018-02-08T12:22:45.536Z,21.30
2018-02-08T12:25:15.332Z,22.55
2018-02-08T12:27:45.230Z,25.25
2018-02-08T12:30:15.024Z,21.75
2018-02-08T12:32:44.742Z,19.92
2018-02-08T12:35:14.543Z,20.08
2018-02-08T12:37:44.375Z,21.15
2018-02-08T12:40:14.275Z,19.77
2018-02-08T12:42:44.033Z,21.37
2018-02-08T12:45:13.898Z,21.85
2018-02-08T12:47:43.804Z,21.92
2018-02-08T12:50:13.620Z,19.58
2018-02-08T12:52:44.132Z,17.73
2018-02-08T12:55:13.900Z,21.90
2018-02-08T12:57:43.634Z,18.50
2018-02-08T13:00:14.263Z,22.27
2018-02-08T13:02:45.087Z,18.45
2018-02-08T13:05:15.684Z,19.73
2018-02-08T13:07:46.230Z,21.05
2018-02-08T13:10:16.050Z,18.62
2018-02-08T13:12:46.026Z,17.70
2018-02-08T13:15:15.836Z,18.65
2018-02-08T13:17:46.895Z,17.40
2018-02-08T13:20:16.705Z,18.33
2018-02-08T13:22:46.448Z,16.92
2018-02-08T13:25:16.760Z,17.87
2018-02-08T13:27:46.761Z,15.20
2018-02-08T13:30:16.756Z,17.53
2018-02-08T13:32:46.571Z,17.03
2018-02-08T13:35:16.455Z,17.43
2018-02-08T13:37:47.056Z,19.17
2018-02-08T13:40:17.025Z,16.77
2018-02-08T13:42:46.800Z,17.83
2018-02-08T13:45:21.369Z,17.03
2018-02-08T13:47:51.164Z,18.07
2018-02-08T13:50:21.099Z,18.83
2018-02-08T13:52:50.939Z,16.60
2018-02-08T13:55:20.995Z,16.60
2018-02-08T13:57:50.995Z,17.83
2018-02-08T14:00:21.774Z,18.37
2018-02-08T14:02:51.580Z,18.53
2018-02-08T14:05:21.526Z,16.33
2018-02-08T14:07:51.262Z,17.00
2018-02-08T14:10:21.334Z,17.47
2018-02-08T14:12:51.086Z,17.27
2018-02-08T14:15:20.889Z,18.00
2018-02-08T14:17:50.602Z,18.77
2018-02-08T14:20:20.350Z,17.83
2018-02-08T14:22:50.902Z,18.73
2018-02-08T14:25:20.789Z,15.60
2018-02-08T14:27:51.288Z,17.70
2018-02-08T14:30:21.105Z,17.97
2018-02-08T14:32:50.803Z,16.77
2018-02-08T14:35:20.587Z,19.77
2018-02-08T14:37:50.325Z,17.93
2018-02-08T14:40:20.172Z,19.60
2018-02-08T14:42:50.691Z,18.10
2018-02-08T14:45:21.418Z,15.73
2018-02-08T14:47:51.964Z,17.77
2018-02-08T14:50:22.632Z,18.73
2018-02-08T14:52:52.428Z,17.65
2018-02-08T14:55:22.202Z,15.77
2018-02-08T14:57:52.163Z,18.07
2018-02-08T15:00:22.229Z,17.10
2018-02-08T15:02:52.167Z,17.00
2018-02-08T15:05:22.057Z,17.70
2018-02-08T15:07:51.823Z,16.58
2018-02-08T15:10:21.886Z,19.30
2018-02-08T15:12:51.719Z,17.20
2018-02-08T15:15:22.381Z,17.27
2018-02-08T15:17:52.092Z,15.75
2018-02-08T15:20:21.893Z,17.42
2018-02-08T15:22:51.744Z,15.85
2018-02-08T15:25:21.613Z,16.80
2018-02-08T15:27:51.490Z,14.48
2018-02-08T15:30:21.516Z,17.25
2018-02-08T15:32:51.279Z,14.13
2018-02-08T15:35:21.102Z,17.05
2018-02-08T15:37:50.960Z,15.55
2018-02-08T15:40:20.970Z,15.80
2018-02-08T15:42:52.154Z,16.62
2018-02-08T15:45:22.025Z,16.35
2018-02-08T15:47:51.732Z,16.08
2018-02-08T15:50:22.110Z,14.15
2018-02-08T15:52:52.068Z,14.57
2018-02-08T15:55:21.897Z,15.27
2018-02-08T15:57:52.460Z,13.40
2018-02-08T16:00:22.197Z,12.48
2018-02-08T16:02:52.103Z,12.23
2018-02-08T16:05:22.024Z,15.68
2018-02-08T16:07:51.834Z,15.13
2018-02-08T16:10:21.984Z,14.87
2018-02-08T16:12:51.746Z,13.68
2018-02-08T16:15:22.486Z,12.27
2018-02-08T16:17:52.310Z,14.20
2018-02-08T16:20:22.120Z,13.18
2018-02-08T16:22:51.881Z,13.13
2018-02-08T16:25:22.443Z,14.40
2018-02-08T16:27:52.164Z,13.00
2018-02-08T16:30:22.203Z,12.57
2018-02-08T16:32:51.951Z,12.02
2018-02-08T16:35:22.541Z,14.13
2018-02-08T16:37:52.326Z,13.38
2018-02-08T16:40:22.097Z,12.80
2018-02-08T16:42:51.951Z,14.77
2018-02-08T16:45:21.740Z,14.43
2018-02-08T16:47:51.469Z,12.65
2018-02-08T16:50:21.206Z,15.68
2018-02-08T16:52:51.074Z,17.12
2018-02-08T16:55:21.729Z,14.15
2018-02-08T16:57:51.587Z,13.82
2018-02-08T17:00:21.355Z,13.10
2018-02-08T17:02:51.369Z,15.20
2018-02-08T17:05:21.178Z,14.43
2018-02-08T17:07:50.991Z,13.35
2018-02-08T17:10:20.958Z,13.48
2018-02-08T17:12:50.730Z,17.05
2018-02-08T17:15:20.447Z,14.75
2018-02-08T17:17:50.213Z,14.30
2018-02-08T17:20:20.008Z,13.88
2018-02-08T17:22:49.865Z,15.88
2018-02-08T17:25:19.662Z,15.88
2018-02-08T17:27:50.294Z,16.30
2018-02-08T17:30:20.227Z,17.60
2018-02-08T17:32:50.027Z,16.08
2018-02-08T17:35:19.845Z,14.52
2018-02-08T17:37:49.781Z,14.48
2018-02-08T17:40:19.508Z,16.05
2018-02-08T17:42:49.366Z,14.98
2018-02-08T17:45:19.211Z,16.60
2018-02-08T17:47:49.350Z,16.23
2018-02-08T17:50:19.206Z,15.75
2018-02-08T17:52:49.021Z,17.12
2018-02-08T17:55:20.093Z,18.33
2018-02-08T17:57:49.874Z,16.35
2018-02-08T18:00:20.578Z,17.62
2018-02-08T18:02:50.513Z,18.02
2018-02-08T18:05:21.061Z,18.65
2018-02-08T18:07:50.791Z,16.62
2018-02-08T18:10:20.795Z,17.42
2018-02-08T18:12:50.573Z,17.12
2018-02-08T18:15:21.265Z,17.35
2018-02-08T18:17:51.065Z,15.90
2018-02-08T18:20:21.204Z,16.98
2018-02-08T18:22:51.159Z,17.20
2018-02-08T18:25:22.855Z,16.15
2018-02-08T18:27:52.650Z,17.35
2018-02-08T18:30:22.842Z,18.35
2018-02-08T18:32:53.413Z,16.23
2018-02-08T18:35:23.276Z,15.07
2018-02-08T18:37:53.912Z,16.12
2018-02-08T18:40:24.242Z,15.57
2018-02-08T18:42:54.768Z,17.52
2018-02-08T18:45:24.840Z,16.77
2018-02-08T18:47:54.735Z,15.25
2018-02-08T18:50:24.672Z,16.42
2018-02-08T18:52:54.338Z,19.52
2018-02-08T18:55:24.209Z,20.83
2018-02-08T18:57:54.055Z,20.08
2018-02-08T19:00:24.614Z,16.90
2018-02-08T19:02:54.312Z,16.52
2018-02-08T19:05:24.481Z,18.33
2018-02-08T19:07:54.185Z,15.32
2018-02-08T19:10:24.677Z,16.75
2018-02-08T19:12:54.496Z,17.48
2018-02-08T19:15:24.513Z,15.32
2018-02-08T19:17:54.553Z,21.05
2018-02-08T19:20:24.582Z,19.12
2018-02-08T19:22:54.288Z,18.75
2018-02-08T19:25:25.221Z,16.98
2018-02-08T19:27:55.014Z,20.10
2018-02-08T19:30:25.512Z,15.82
2018-02-08T19:32:55.403Z,15.77
2018-02-08T19:35:25.936Z,16.80
2018-02-08T19:37:56.892Z,16.92
2018-02-08T19:40:27.600Z,17.75
2018-02-08T19:42:59.597Z,16.92
2018-02-08T19:45:29.312Z,15.23
2018-02-08T19:47:59.936Z,17.60
2018-02-08T19:50:29.679Z,16.35
2018-02-08T19:52:59.510Z,17.92
2018-02-08T19:55:30.135Z,15.75
2018-02-08T19:58:02.142Z,19.10
2018-02-08T20:00:32.733Z,16.77
2018-02-08T20:03:02.843Z,17.90
2018-02-08T20:05:32.629Z,19.73
2018-02-08T20:08:03.170Z,16.37
2018-02-08T20:10:32.939Z,18.92
2018-02-08T20:13:04.118Z,18.08
2018-02-08T20:15:33.880Z,19.50
2018-02-08T20:18:03.869Z,18.25
2018-02-08T20:20:33.537Z,19.37
2018-02-08T20:23:04.085Z,19.83
2018-02-08T20:25:35.475Z,18.87
2018-02-08T20:28:05.581Z,20.12
2018-02-08T20:30:35.349Z,19.40
2018-02-08T20:33:06.179Z,20.20
2018-02-08T20:35:36.811Z,18.58
2018-02-08T20:38:06.704Z,19.52
2018-02-08T20:40:37.553Z,22.85
2018-02-08T20:43:13.463Z,21.70
2018-02-08T20:45:43.335Z,22.90
2018-02-08T20:48:13.399Z,20.48
2018-02-08T20:50:43.245Z,22.87
2018-02-08T20:53:13.849Z,26.37
2018-02-08T20:55:43.944Z,20.62
2018-02-08T20:58:13.785Z,23.87
2018-02-08T21:00:43.648Z,24.83
2018-02-08T21:03:13.467Z,28.95
2018-02-08T21:05:44.033Z,23.92
2018-02-08T21:08:15.721Z,20.12
2018-02-08T21:10:45.847Z,27.65
2018-02-08T21:13:15.744Z,22.30
2018-02-08T21:15:46.399Z,23.10
2018-02-08T21:18:16.265Z,20.52
2018-02-08T21:20:46.080Z,23.27
2018-02-08T21:23:16.028Z,21.58
2018-02-08T21:25:45.728Z,21.65
2018-02-08T21:28:15.516Z,23.00
2018-02-08T21:30:45.383Z,25.90
2018-02-08T21:33:15.132Z,24.98
2018-02-08T21:35:44.975Z,25.83
2018-02-08T21:38:15.540Z,25.95
2018-02-08T21:40:45.471Z,27.23
2018-02-08T21:43:15.265Z,23.40
2018-02-08T21:45:45.026Z,28.85
2018-02-08T21:48:14.813Z,24.45
2018-02-08T21:50:44.537Z,24.75
2018-02-08T21:53:14.473Z,23.83
2018-02-08T21:55:44.232Z,27.87
2018-02-08T21:58:13.940Z,23.45
2018-02-08T22:00:43.760Z,23.73
2018-02-08T22:03:13.482Z,23.40
2018-02-08T22:05:43.190Z,27.83
2018-02-08T22:08:12.985Z,25.98
2018-02-08T22:10:42.814Z,24.70
2018-02-08T22:13:12.619Z,26.33
2018-02-08T22:15:43.350Z,27.98
2018-02-08T22:18:13.102Z,24.15
2018-02-08T22:20:42.907Z,23.17
2018-02-08T22:23:12.646Z,27.48
2018-02-08T22:25:42.424Z,22.60
2018-02-08T22:28:12.169Z,23.38
2018-02-08T22:30:42.018Z,26.65
2018-02-08T22:33:11.823Z,27.58
2018-02-08T22:35:43.640Z,23.40
2018-02-08T22:38:14.260Z,23.58
2018-02-08T22:40:44.206Z,26.10
2018-02-08T22:43:13.994Z,28.70
2018-02-08T22:45:44.512Z,25.62
2018-02-08T22:48:14.977Z,25.40
2018-02-08T22:50:44.883Z,23.92
2018-02-08T22:53:14.610Z,28.12
2018-02-08T22:55:44.378Z,24.75
2018-02-08T22:58:14.331Z,25.95
2018-02-08T23:00:44.052Z,26.42
2018-02-08T23:03:13.722Z,26.05
2018-02-08T23:05:43.527Z,29.95
2018-02-08T23:08:14.074Z,26.92
2018-02-08T23:10:43.871Z,31.90
2018-02-08T23:13:13.688Z,26.10
2018-02-08T23:15:44.241Z,29.50
2018-02-08T23:18:14.034Z,30.20
2018-02-08T23:20:43.743Z,26.33
2018-02-08T23:23:13.429Z,25.08
2018-02-08T23:25:43.230Z,31.75
2018-02-08T23:28:12.905Z,27.58
2018-02-08T23:30:42.657Z,29.20
2018-02-08T23:33:12.346Z,31.05
2018-02-08T23:35:42.053Z,30.90
2018-02-08T23:38:11.815Z,29.92
2018-02-08T23:40:41.579Z,32.78
2018-02-08T23:43:11.293Z,27.87
2018-02-08T23:45:41.003Z,31.90
2018-02-08T23:48:10.756Z,32.17
2018-02-08T23:50:41.044Z,30.58
2018-02-08T23:53:10.868Z,29.20
2018-02-08T23:55:40.731Z,28.33
2018-02-08T23:58:10.484Z,30.65
